Time;durP1;ratioP1;P1;durP2;ratioP2;P2;SDS_P1;SDS_P2;PMS_P1;PMS_P2;Temp;Humidity;BMP_temperature;BMP_pressure;BME280_temperature;BME280_humidity;BME280_pressure;Samples;Min_cycle;Max_cycle;Signal;HPM_P1;HPM_P2
2021/07/15 00:01:42;;;;;;;1.63;1.50;;;21.20;88.30;;;;;;10415830;28;20205;-23
2021/07/15 00:07:05;;;;;;;1.73;1.63;;;21.20;88.30;;;;;;10415084;28;20228;-22
2021/07/15 00:12:27;;;;;;;2.00;1.80;;;21.10;88.20;;;;;;10426606;28;20291;-22
2021/07/15 00:17:50;;;;;;;1.70;1.60;;;21.20;88.20;;;;;;10414873;28;20221;-23
2021/07/15 00:23:14;;;;;;;1.67;1.57;;;21.10;88.20;;;;;;10422607;28;20194;-24
2021/07/15 00:28:36;;;;;;;2.10;1.90;;;21.10;88.20;;;;;;10414476;28;20221;-24
2021/07/15 00:33:58;;;;;;;5.10;2.00;;;21.10;88.20;;;;;;10419565;28;20212;-23
2021/07/15 00:39:22;;;;;;;1.70;1.60;;;21.10;88.10;;;;;;10422779;28;20222;-24
2021/07/15 00:44:44;;;;;;;3.17;1.67;;;21.10;88.10;;;;;;10414491;28;20213;-23
2021/07/15 00:50:09;;;;;;;1.87;1.77;;;21.10;88.10;;;;;;10413611;28;20210;-23
2021/07/15 00:55:36;;;;;;;1.80;1.70;;;21.10;88.10;;;;;;10413088;28;20673;-22
2021/07/15 01:00:59;;;;;;;2.13;1.60;;;21.10;88.10;;;;;;10413950;28;20197;-22
2021/07/15 01:06:21;;;;;;;1.60;1.50;;;21.10;88.10;;;;;;10438145;28;20229;-21
2021/07/15 01:12:03;;;;;;;1.60;1.50;;;21.10;88.10;;;;;;10454632;28;20215;-23
2021/07/15 01:17:30;;;;;;;1.50;1.40;;;21.10;88.00;;;;;;10454348;28;20211;-23
2021/07/15 01:23:05;;;;;;;1.30;1.20;;;21.10;88.00;;;;;;10428098;28;20190;-23
2021/07/15 01:28:45;;;;;;;1.43;1.33;;;21.10;88.00;;;;;;10411888;28;20226;-25
2021/07/15 01:34:12;;;;;;;3.63;1.40;;;21.10;87.90;;;;;;10419070;28;20193;-22
2021/07/15 01:39:37;;;;;;;2.40;1.50;;;21.10;87.90;;;;;;10419951;28;20562;-23
2021/07/15 01:44:59;;;;;;;1.20;1.10;;;21.10;87.90;;;;;;10427887;28;20209;-23
2021/07/15 01:50:23;;;;;;;1.40;1.23;;;21.10;87.90;;;;;;10451553;28;20208;-22
2021/07/15 01:55:46;;;;;;;2.60;1.60;;;21.10;87.90;;;;;;10444554;23;20210;-30
2021/07/15 02:01:09;;;;;;;1.67;1.40;;;21.10;87.90;;;;;;10456061;28;20266;-28
2021/07/15 02:06:35;;;;;;;1.40;1.27;;;21.10;87.90;;;;;;10454354;28;20596;-33
2021/07/15 02:11:58;;;;;;;1.67;1.10;;;21.10;87.80;;;;;;10449353;28;20629;-31
2021/07/15 02:17:21;;;;;;;1.50;1.40;;;21.10;87.80;;;;;;10450744;28;20213;-31
2021/07/15 02:22:46;;;;;;;1.40;1.30;;;21.10;87.80;;;;;;10452015;28;20584;-31
2021/07/15 02:28:11;;;;;;;2.90;1.13;;;21.10;87.80;;;;;;10451908;28;20224;-29
2021/07/15 02:33:37;;;;;;;2.70;1.30;;;21.10;87.80;;;;;;10451298;28;20675;-28
2021/07/15 02:39:04;;;;;;;1.57;1.17;;;21.10;87.80;;;;;;10422904;28;20208;-28
2021/07/15 02:44:28;;;;;;;2.30;1.30;;;21.10;87.80;;;;;;10452680;28;20196;-30
2021/07/15 02:49:51;;;;;;;1.40;1.30;;;21.10;87.80;;;;;;10452254;28;20303;-31
2021/07/15 02:55:15;;;;;;;1.30;1.20;;;21.10;87.70;;;;;;10452650;28;20197;-30
2021/07/15 03:00:42;;;;;;;1.40;1.17;;;21.10;87.70;;;;;;10453888;28;20619;-30
2021/07/15 03:06:09;;;;;;;1.57;1.33;;;21.10;87.70;;;;;;10454726;28;20213;-29
2021/07/15 03:11:37;;;;;;;1.20;1.13;;;21.10;87.70;;;;;;10452640;28;20242;-28
2021/07/15 03:17:00;;;;;;;1.10;1.00;;;21.10;87.70;;;;;;10448114;28;20721;-28
2021/07/15 03:22:25;;;;;;;1.83;1.20;;;21.10;87.70;;;;;;10429756;28;20263;-27
2021/07/15 03:27:51;;;;;;;1.20;1.10;;;21.00;87.60;;;;;;10413186;28;20214;-29
2021/07/15 03:33:14;;;;;;;1.43;1.33;;;21.10;87.70;;;;;;10418459;28;20194;-30
2021/07/15 03:38:40;;;;;;;1.30;1.20;;;21.10;87.70;;;;;;10453119;28;20573;-29
2021/07/15 03:44:04;;;;;;;1.57;1.20;;;21.10;87.70;;;;;;10458336;28;20193;-28
2021/07/15 03:49:28;;;;;;;1.77;1.13;;;21.10;87.60;;;;;;10448415;28;20703;-30
2021/07/15 03:54:52;;;;;;;1.53;1.20;;;21.00;87.50;;;;;;10437025;28;20196;-30
2021/07/15 04:00:16;;;;;;;1.07;1.00;;;21.10;87.70;;;;;;10436901;28;20225;-29
2021/07/15 04:05:41;;;;;;;1.97;1.30;;;21.10;87.60;;;;;;10442744;28;20213;-32
2021/07/15 04:11:05;;;;;;;1.97;1.30;;;21.10;87.60;;;;;;10440418;28;20239;-32
2021/07/15 04:16:41;;;;;;;1.30;1.20;;;21.10;87.60;;;;;;10436667;28;20214;-30
2021/07/15 04:22:06;;;;;;;1.23;1.13;;;21.00;87.50;;;;;;10436856;28;20680;-32
2021/07/15 04:27:29;;;;;;;1.77;1.20;;;21.10;87.60;;;;;;10434614;28;20213;-32
2021/07/15 04:32:55;;;;;;;1.30;1.20;;;21.10;87.60;;;;;;10434879;28;20209;-29
2021/07/15 04:38:17;;;;;;;1.20;1.10;;;21.10;87.50;;;;;;10440120;28;20224;-30
2021/07/15 04:43:41;;;;;;;2.07;1.10;;;21.10;87.50;;;;;;10428642;28;20539;-29
2021/07/15 04:49:06;;;;;;;1.23;1.20;;;21.10;87.60;;;;;;10423246;28;20716;-32
2021/07/15 04:54:29;;;;;;;2.27;1.23;;;21.10;87.60;;;;;;10414990;28;20194;-30
2021/07/15 04:59:52;;;;;;;1.83;1.30;;;21.10;87.60;;;;;;10415294;28;20804;-29
2021/07/15 05:05:15;;;;;;;1.57;1.40;;;21.10;87.50;;;;;;10414495;28;20218;-32
2021/07/15 05:10:37;;;;;;;1.30;1.20;;;21.10;88.10;;;;;;10432101;28;20272;-30
2021/07/15 05:15:59;;;;;;;1.27;1.17;;;21.10;87.60;;;;;;10435428;28;20216;-30
2021/07/15 05:21:23;;;;;;;1.30;1.20;;;21.10;87.70;;;;;;10434600;28;20196;-29
2021/07/15 05:26:45;;;;;;;1.30;1.20;;;21.10;87.90;;;;;;10455123;28;20217;-32
2021/07/15 05:32:07;;;;;;;1.17;1.10;;;21.10;87.70;;;;;;10455308;28;20573;-30
2021/07/15 05:37:31;;;;;;;2.07;1.03;;;21.10;87.80;;;;;;10448939;28;20221;-32
2021/07/15 05:42:53;;;;;;;1.30;1.20;;;21.10;87.80;;;;;;10455127;28;20201;-29
2021/07/15 05:48:15;;;;;;;1.40;1.30;;;21.10;87.70;;;;;;10454549;28;20730;-30
2021/07/15 05:53:38;;;;;;;1.13;1.03;;;21.10;87.80;;;;;;10437910;28;20200;-31
2021/07/15 05:59:00;;;;;;;3.47;1.20;;;21.10;87.70;;;;;;10436290;28;20300;-31
2021/07/15 06:04:22;;;;;;;1.93;1.80;;;21.10;87.70;;;;;;10422108;28;20189;-31
2021/07/15 06:09:46;;;;;;;2.60;2.37;;;21.00;85.80;;;;;;10429189;28;20232;-33
2021/07/15 06:15:09;;;;;;;2.70;2.20;;;20.90;84.90;;;;;;10446560;28;20193;-31
2021/07/15 06:20:31;;;;;;;2.63;2.43;;;20.80;84.70;;;;;;10453542;28;20197;-30
2021/07/15 06:25:55;;;;;;;2.40;2.20;;;20.80;85.00;;;;;;10425383;28;20592;-29
2021/07/15 06:31:17;;;;;;;2.47;2.03;;;20.80;85.10;;;;;;10449222;28;20198;-31
2021/07/15 06:36:43;;;;;;;5.23;1.90;;;20.80;85.00;;;;;;10450044;28;20213;-35
2021/07/15 06:42:06;;;;;;;6.83;2.00;;;20.80;84.40;;;;;;10451647;28;20201;-29
2021/07/15 06:47:28;;;;;;;2.70;2.10;;;20.80;84.60;;;;;;10451331;28;20221;-30
2021/07/15 06:52:51;;;;;;;3.47;2.10;;;20.90;84.90;;;;;;10451212;28;20193;-31
2021/07/15 06:58:14;;;;;;;3.70;2.13;;;21.00;84.90;;;;;;10424199;28;20229;-31
2021/07/15 07:03:36;;;;;;;3.60;2.00;;;21.00;84.30;;;;;;10449157;28;20201;-30
2021/07/15 07:08:58;;;;;;;2.93;1.80;;;21.00;84.90;;;;;;10458628;28;20723;-31
2021/07/15 07:14:22;;;;;;;2.20;2.00;;;21.00;84.30;;;;;;10460331;28;20201;-29
2021/07/15 07:19:44;;;;;;;1.77;1.67;;;21.10;84.50;;;;;;10457182;28;20221;-31
2021/07/15 07:25:09;;;;;;;3.10;1.60;;;21.10;84.40;;;;;;10418888;28;20208;-31
2021/07/15 07:30:32;;;;;;;2.77;1.80;;;21.20;84.70;;;;;;10417293;28;20665;-31
2021/07/15 07:35:55;;;;;;;2.43;1.80;;;21.20;85.00;;;;;;10454434;28;20217;-31
2021/07/15 07:41:17;;;;;;;2.93;1.43;;;21.30;85.10;;;;;;10453064;28;20558;-31
2021/07/15 07:46:40;;;;;;;1.30;1.20;;;21.30;84.80;;;;;;10455204;28;20235;-35
2021/07/15 07:52:02;;;;;;;1.70;1.60;;;21.30;84.40;;;;;;10457619;28;20656;-31
2021/07/15 07:57:25;;;;;;;7.30;1.87;;;21.30;85.50;;;;;;10462022;23;20375;-23
2021/07/15 08:02:48;;;;;;;1.40;1.30;;;21.30;85.50;;;;;;10409169;28;20669;-23
2021/07/15 08:08:10;;;;;;;3.73;1.37;;;21.30;85.70;;;;;;10411019;28;20336;-24
2021/07/15 08:13:33;;;;;;;2.00;1.30;;;21.30;85.80;;;;;;10414424;28;20201;-24
2021/07/15 08:18:57;;;;;;;2.13;1.00;;;21.30;83.90;;;;;;10412440;28;20205;-23
2021/07/15 08:24:19;;;;;;;1.43;1.23;;;21.30;84.90;;;;;;10414475;28;20206;-24
2021/07/15 08:29:41;;;;;;;1.30;1.20;;;21.30;85.00;;;;;;10415188;28;20607;-25
2021/07/15 08:35:06;;;;;;;2.60;1.10;;;21.30;85.10;;;;;;10413467;28;20673;-23
2021/07/15 08:40:28;;;;;;;1.77;1.27;;;21.30;85.10;;;;;;10383693;28;20589;-23
2021/07/15 08:45:51;;;;;;;2.27;1.00;;;21.30;84.40;;;;;;10414065;28;20213;-23
2021/07/15 08:51:15;;;;;;;1.97;1.20;;;21.30;84.50;;;;;;10435202;28;20221;-22
2021/07/15 08:56:41;;;;;;;1.63;1.10;;;21.30;84.50;;;;;;10454660;28;20193;-23
2021/07/15 09:02:04;;;;;;;1.20;1.10;;;21.30;84.60;;;;;;10431735;28;20691;-23
2021/07/15 09:07:28;;;;;;;1.90;1.00;;;21.30;84.60;;;;;;10453522;28;20711;-22
2021/07/15 09:12:50;;;;;;;1.00;0.93;;;21.30;84.60;;;;;;10447063;28;20584;-23
2021/07/15 09:18:13;;;;;;;1.00;1.00;;;21.30;85.00;;;;;;10453709;28;20217;-23
2021/07/15 09:23:37;;;;;;;0.90;0.90;;;21.40;84.70;;;;;;10400491;28;20573;-23
2021/07/15 09:29:13;;;;;;;2.40;0.80;;;21.40;84.40;;;;;;10385804;28;20226;-23
2021/07/15 09:34:37;;;;;;;1.33;1.13;;;21.40;83.80;;;;;;10379088;28;20205;-22
2021/07/15 09:40:00;;;;;;;2.10;1.27;;;21.40;84.20;;;;;;10412619;28;20218;-23
2021/07/15 09:45:29;;;;;;;1.20;1.10;;;21.40;84.50;;;;;;10423145;28;20663;-23
2021/07/15 09:50:54;;;;;;;0.70;0.70;;;21.30;84.40;;;;;;10423984;28;20218;-24
2021/07/15 09:56:19;;;;;;;1.10;1.00;;;21.30;84.30;;;;;;10403361;28;20198;-23
2021/07/15 10:01:46;;;;;;;2.17;1.00;;;21.30;84.50;;;;;;10411441;28;20205;-23
2021/07/15 10:07:12;;;;;;;1.20;1.10;;;21.30;84.40;;;;;;10414726;28;20217;-22
2021/07/15 10:12:36;;;;;;;1.43;0.87;;;21.30;84.70;;;;;;10399151;28;20201;-22
2021/07/15 10:17:58;;;;;;;2.83;0.93;;;21.30;84.30;;;;;;10400220;28;20719;-22
2021/07/15 10:23:30;;;;;;;1.20;1.10;;;21.30;84.30;;;;;;10412680;28;20692;-23
2021/07/15 10:28:54;;;;;;;0.97;0.97;;;21.30;84.00;;;;;;10428548;28;20292;-23
2021/07/15 10:34:16;;;;;;;1.40;1.10;;;21.30;84.60;;;;;;10429351;28;20189;-23
2021/07/15 10:39:39;;;;;;;2.37;1.20;;;21.30;84.50;;;;;;10433907;28;20229;-23
2021/07/15 10:45:03;;;;;;;1.40;1.30;;;21.30;84.50;;;;;;10435798;28;20189;-24
2021/07/15 10:50:25;;;;;;;2.27;1.10;;;21.30;84.50;;;;;;10438679;28;20707;-23
2021/07/15 10:55:48;;;;;;;1.43;1.13;;;21.30;84.70;;;;;;10435427;28;20200;-23
2021/07/15 11:01:12;;;;;;;1.67;1.20;;;21.30;84.80;;;;;;10435935;28;20692;-23
2021/07/15 11:06:39;;;;;;;1.10;1.00;;;21.30;85.00;;;;;;10424821;28;20632;-24
2021/07/15 11:12:04;;;;;;;2.10;1.40;;;21.30;85.10;;;;;;10417167;28;20201;-23
2021/07/15 11:17:32;;;;;;;2.40;1.20;;;21.20;84.90;;;;;;10436076;28;20220;-22
2021/07/15 11:22:56;;;;;;;1.70;1.60;;;21.30;85.00;;;;;;10432491;28;20665;-23
2021/07/15 11:28:23;;;;;;;1.30;1.20;;;21.30;85.00;;;;;;10393202;28;20217;-23
2021/07/15 11:33:48;;;;;;;1.83;1.40;;;21.30;84.60;;;;;;10457090;28;20189;-23
2021/07/15 11:39:10;;;;;;;1.30;1.20;;;21.30;84.60;;;;;;10457767;28;20224;-22
2021/07/15 11:44:57;;;;;;;1.50;1.40;;;21.30;84.70;;;;;;10458218;28;20200;-23
2021/07/15 11:50:34;;;;;;;1.67;1.23;;;21.30;84.40;;;;;;10435489;28;20221;-23
2021/07/15 11:55:58;;;;;;;2.00;1.40;;;21.30;84.40;;;;;;10415121;28;20236;-23
2021/07/15 12:01:22;;;;;;;2.73;1.50;;;21.30;84.40;;;;;;10411627;28;20386;-23
2021/07/15 12:06:46;;;;;;;1.80;1.27;;;21.30;84.60;;;;;;10412387;28;20883;-23
2021/07/15 12:12:08;;;;;;;2.40;1.30;;;21.30;84.50;;;;;;10387380;28;20202;-24
2021/07/15 12:17:32;;;;;;;4.17;1.40;;;21.30;84.40;;;;;;10426949;28;20217;-23
2021/07/15 12:22:58;;;;;;;2.03;1.40;;;21.30;84.30;;;;;;10424483;28;20241;-23
2021/07/15 12:28:25;;;;;;;3.10;1.40;;;21.30;84.40;;;;;;10408281;28;20218;-23
2021/07/15 12:33:49;;;;;;;2.83;1.50;;;21.30;84.20;;;;;;10409609;28;20546;-24
2021/07/15 12:39:14;;;;;;;3.90;1.60;;;21.30;84.00;;;;;;10408611;28;20244;-25
2021/07/15 12:44:36;;;;;;;1.83;1.47;;;21.30;84.20;;;;;;10414800;28;20592;-23
2021/07/15 12:49:58;;;;;;;1.30;1.20;;;21.30;83.70;;;;;;10448881;28;20225;-25
2021/07/15 12:55:28;;;;;;;1.47;1.37;;;21.30;83.70;;;;;;10435233;28;20212;-25
2021/07/15 13:00:50;;;;;;;2.20;2.00;;;21.30;83.50;;;;;;10407309;28;20218;-24
2021/07/15 13:06:12;;;;;;;1.57;1.47;;;21.30;83.50;;;;;;10446984;28;20193;-23
2021/07/15 13:17:18;;;;;;;2.03;1.60;;;21.30;83.80;;;;;;10400978;28;20223;-23
2021/07/15 13:22:41;;;;;;;2.77;1.47;;;21.30;83.70;;;;;;10392747;28;20233;-23
2021/07/15 13:28:07;;;;;;;3.07;1.53;;;21.30;83.70;;;;;;10409802;28;20221;-23
2021/07/15 13:33:30;;;;;;;4.83;1.90;;;21.30;84.00;;;;;;10410073;28;20645;-23
2021/07/15 13:38:52;;;;;;;1.60;1.50;;;21.30;83.80;;;;;;10413041;28;20213;-23
2021/07/15 13:44:15;;;;;;;2.70;1.40;;;21.30;83.80;;;;;;10413676;28;20205;-24
2021/07/15 13:49:38;;;;;;;5.87;1.80;;;21.30;83.70;;;;;;10411173;28;20233;-25
2021/07/15 13:55:07;;;;;;;2.67;1.53;;;21.30;83.50;;;;;;10416029;28;20200;-23
2021/07/15 14:00:32;;;;;;;3.40;1.17;;;21.30;83.70;;;;;;10435292;22;20595;-28
2021/07/15 14:05:56;;;;;;;3.00;1.53;;;21.30;83.30;;;;;;10462245;28;20206;-31
2021/07/15 14:11:18;;;;;;;2.33;1.30;;;21.30;83.60;;;;;;10410885;28;20229;-31
2021/07/15 14:16:42;;;;;;;3.53;1.47;;;21.30;83.70;;;;;;10427206;28;20428;-31
2021/07/15 14:22:04;;;;;;;1.90;1.80;;;21.20;83.80;;;;;;10466328;28;20200;-31
2021/07/15 14:27:26;;;;;;;1.77;1.27;;;21.20;83.90;;;;;;10493764;28;20217;-30
2021/07/15 14:32:50;;;;;;;1.80;1.27;;;21.20;84.10;;;;;;10494196;28;20197;-29
2021/07/15 14:38:16;;;;;;;2.73;1.30;;;21.20;84.30;;;;;;10437055;28;20218;-30
2021/07/15 14:43:39;;;;;;;1.63;1.40;;;21.20;84.40;;;;;;10410005;28;20216;-29
2021/07/15 14:49:04;;;;;;;2.30;1.57;;;21.20;84.40;;;;;;10449654;28;20221;-30
2021/07/15 14:54:26;;;;;;;1.40;1.10;;;21.20;84.30;;;;;;10463808;28;20189;-29
2021/07/15 14:59:48;;;;;;;1.30;1.20;;;21.20;84.60;;;;;;10452016;28;20221;-29
2021/07/15 15:05:13;;;;;;;1.23;1.13;;;21.20;84.50;;;;;;10452057;28;20201;-29
2021/07/15 15:10:35;;;;;;;1.33;1.23;;;21.20;84.60;;;;;;10410547;28;20575;-30
2021/07/15 15:16:00;;;;;;;1.10;0.97;;;21.20;84.60;;;;;;10410921;28;20604;-29
2021/07/15 15:21:24;;;;;;;1.73;1.23;;;21.20;84.60;;;;;;10432383;28;20297;-30
2021/07/15 15:26:46;;;;;;;1.50;1.40;;;21.20;84.70;;;;;;10497415;28;20659;-30
2021/07/15 15:32:08;;;;;;;1.57;1.47;;;21.20;84.60;;;;;;10473761;28;20603;-30
2021/07/15 15:37:31;;;;;;;1.37;1.27;;;21.20;84.70;;;;;;10457394;28;20588;-31
2021/07/15 15:42:53;;;;;;;1.80;1.30;;;21.20;84.70;;;;;;10417794;28;20573;-33
2021/07/15 15:48:16;;;;;;;1.33;1.20;;;21.20;84.90;;;;;;10472532;28;20228;-30
2021/07/15 15:53:39;;;;;;;1.60;1.50;;;21.20;84.80;;;;;;10484023;28;20201;-30
2021/07/15 15:59:01;;;;;;;1.57;1.00;;;21.20;84.80;;;;;;10455482;28;20224;-31
2021/07/15 16:04:24;;;;;;;1.50;1.40;;;21.20;85.00;;;;;;10456947;28;20201;-31
2021/07/15 16:09:47;;;;;;;1.30;1.20;;;21.20;84.80;;;;;;10456884;28;20223;-30
2021/07/15 16:15:11;;;;;;;1.60;1.30;;;21.20;84.80;;;;;;10461989;28;20206;-30
2021/07/15 16:20:34;;;;;;;1.80;1.47;;;21.20;84.80;;;;;;10472147;28;20216;-31
2021/07/15 16:25:57;;;;;;;1.73;1.63;;;21.20;84.90;;;;;;10458050;28;20307;-31
2021/07/15 16:31:19;;;;;;;1.67;1.57;;;21.20;84.60;;;;;;10458689;28;20711;-30
2021/07/15 16:36:41;;;;;;;1.97;1.80;;;21.20;84.40;;;;;;10452909;28;20201;-29
2021/07/15 16:42:07;;;;;;;3.63;1.97;;;21.20;84.70;;;;;;10454677;28;20193;-31
2021/07/15 16:47:29;;;;;;;3.37;1.90;;;21.20;84.50;;;;;;10470398;28;20607;-30
2021/07/15 16:52:53;;;;;;;1.73;1.63;;;21.20;84.30;;;;;;10496866;28;20193;-30
2021/07/15 16:58:16;;;;;;;2.53;1.87;;;21.20;84.60;;;;;;10497125;28;20232;-30
2021/07/15 17:03:38;;;;;;;2.87;1.67;;;21.20;84.60;;;;;;10495785;28;20193;-31
2021/07/15 17:09:01;;;;;;;1.63;1.53;;;21.20;84.40;;;;;;10496755;28;20223;-30
2021/07/15 17:14:24;;;;;;;1.93;1.83;;;21.20;84.50;;;;;;10425477;28;20198;-28
2021/07/15 17:19:46;;;;;;;1.67;1.57;;;21.20;84.70;;;;;;10408595;28;20224;-31
2021/07/15 17:25:09;;;;;;;2.13;1.77;;;21.20;84.80;;;;;;10451988;28;20849;-31
2021/07/15 17:30:33;;;;;;;1.83;1.60;;;21.20;84.80;;;;;;10450221;28;20312;-30
2021/07/15 17:35:55;;;;;;;4.80;1.80;;;21.10;84.80;;;;;;10455329;28;20204;-29
2021/07/15 17:41:17;;;;;;;3.43;2.20;;;21.20;84.80;;;;;;10448645;28;20213;-30
2021/07/15 17:46:42;;;;;;;2.40;1.70;;;21.20;84.80;;;;;;10432582;28;20209;-29
2021/07/15 17:52:04;;;;;;;2.70;2.10;;;21.20;84.90;;;;;;10491174;28;20303;-30
2021/07/15 17:57:27;;;;;;;2.93;1.80;;;21.20;85.20;;;;;;10492622;28;20596;-29
2021/07/15 18:02:51;;;;;;;2.13;1.97;;;21.20;85.20;;;;;;10462867;28;20553;-31
2021/07/15 18:08:13;;;;;;;2.67;1.70;;;21.20;85.20;;;;;;10452660;28;20595;-29
2021/07/15 18:13:35;;;;;;;2.07;1.87;;;21.20;85.00;;;;;;10447456;28;20735;-28
2021/07/15 18:18:59;;;;;;;2.07;1.80;;;21.20;85.10;;;;;;10451578;28;20217;-30
2021/07/15 18:24:21;;;;;;;2.70;1.73;;;21.20;85.20;;;;;;10417218;28;20206;-32
2021/07/15 18:29:43;;;;;;;2.30;1.87;;;21.10;85.30;;;;;;10422750;28;20213;-31
2021/07/15 18:35:09;;;;;;;2.23;2.03;;;21.20;85.20;;;;;;10452473;28;20259;-31
2021/07/15 18:40:31;;;;;;;3.27;1.90;;;21.20;85.60;;;;;;10434638;28;20217;-31
2021/07/15 18:45:54;;;;;;;3.63;2.10;;;21.20;85.50;;;;;;10422109;28;20303;-32
2021/07/15 18:51:17;;;;;;;3.87;3.23;;;21.10;85.50;;;;;;10476817;28;20228;-31
2021/07/15 18:56:39;;;;;;;3.60;3.20;;;21.20;85.60;;;;;;10450342;28;20197;-30
2021/07/15 19:02:01;;;;;;;4.90;3.80;;;21.20;85.70;;;;;;10416913;28;20209;-30
2021/07/15 19:07:25;;;;;;;7.13;4.70;;;21.20;85.80;;;;;;10419344;28;20221;-31
2021/07/15 19:12:48;;;;;;;5.10;4.33;;;21.20;85.80;;;;;;10419520;28;20550;-30
2021/07/15 19:18:10;;;;;;;6.27;5.33;;;21.20;85.80;;;;;;10443407;28;20588;-31
2021/07/15 19:23:33;;;;;;;9.70;6.80;;;21.20;86.00;;;;;;10439646;28;20193;-31
2021/07/15 19:28:55;;;;;;;10.43;8.07;;;21.20;86.10;;;;;;10422259;28;20233;-30
2021/07/15 19:34:17;;;;;;;10.60;7.03;;;21.20;86.10;;;;;;10439476;28;20189;-31
2021/07/15 19:39:41;;;;;;;10.43;7.77;;;21.20;86.30;;;;;;10438484;28;20580;-29
2021/07/15 19:45:05;;;;;;;9.13;7.73;;;21.20;86.50;;;;;;10445413;28;20212;-31
2021/07/15 19:50:29;;;;;;;10.60;8.70;;;21.20;86.60;;;;;;10464965;28;20220;-28
2021/07/15 19:55:52;;;;;;;10.70;8.40;;;21.20;86.70;;;;;;10459199;28;20203;-30
2021/07/15 20:01:14;;;;;;;9.97;7.70;;;21.20;86.80;;;;;;10536279;23;20718;-23
2021/07/15 20:06:37;;;;;;;12.40;8.60;;;21.20;86.90;;;;;;10526713;28;20586;-23
2021/07/15 20:12:00;;;;;;;9.00;7.93;;;21.20;86.80;;;;;;10516044;28;20243;-23
2021/07/15 20:17:22;;;;;;;10.70;8.43;;;21.20;86.90;;;;;;10508135;28;20200;-23
2021/07/15 20:22:45;;;;;;;11.30;8.37;;;21.20;86.90;;;;;;10490275;28;20193;-23
2021/07/15 20:28:10;;;;;;;12.07;9.13;;;21.20;86.90;;;;;;10479476;28;20228;-24
2021/07/15 20:33:32;;;;;;;9.20;8.23;;;21.10;86.80;;;;;;10497036;28;20664;-23
2021/07/15 20:38:54;;;;;;;9.70;8.70;;;21.20;87.00;;;;;;10485253;28;20220;-23
2021/07/15 20:44:18;;;;;;;10.43;8.57;;;21.20;87.10;;;;;;10454868;28;20704;-24
2021/07/15 20:49:40;;;;;;;11.10;8.43;;;21.20;87.00;;;;;;10455634;28;20217;-23
2021/07/15 20:55:02;;;;;;;9.53;8.47;;;21.20;87.60;;;;;;10461059;28;20556;-22
2021/07/15 21:00:26;;;;;;;10.83;8.90;;;21.20;87.00;;;;;;10457646;28;20696;-21
2021/07/15 21:05:48;;;;;;;12.00;8.80;;;21.20;87.10;;;;;;10454581;28;20204;-25
2021/07/15 21:11:10;;;;;;;9.87;8.90;;;21.20;87.10;;;;;;10475515;28;20224;-25
2021/07/15 21:16:34;;;;;;;10.50;8.53;;;21.20;87.10;;;;;;10491667;28;20576;-24
2021/07/15 21:21:56;;;;;;;11.33;8.90;;;21.20;87.20;;;;;;10493779;28;20572;-23
2021/07/15 21:27:18;;;;;;;8.97;8.07;;;21.20;87.10;;;;;;10495180;28;20201;-22
2021/07/15 21:32:43;;;;;;;9.53;8.53;;;21.20;87.20;;;;;;10491923;28;20217;-23
2021/07/15 21:38:05;;;;;;;11.60;8.20;;;21.20;87.00;;;;;;10476977;28;20216;-22
2021/07/15 21:43:27;;;;;;;10.47;8.07;;;21.20;87.10;;;;;;10453070;28;20707;-23
2021/07/15 21:48:50;;;;;;;12.53;8.53;;;21.20;87.20;;;;;;10452946;28;20589;-22
2021/07/15 21:54:12;;;;;;;10.33;8.70;;;21.20;87.30;;;;;;10452462;28;20565;-24
2021/07/15 21:59:34;;;;;;;9.40;7.53;;;21.20;87.30;;;;;;10485774;28;20228;-22
2021/07/15 22:04:58;;;;;;;8.70;7.77;;;21.20;87.60;;;;;;10514963;28;20617;-23
2021/07/15 22:10:23;;;;;;;9.57;7.80;;;21.20;87.20;;;;;;10467101;28;20623;-23
2021/07/15 22:15:45;;;;;;;10.23;8.07;;;21.20;87.20;;;;;;10452476;28;20204;-23
2021/07/15 22:21:11;;;;;;;9.50;7.30;;;21.10;87.10;;;;;;10474862;28;20215;-24
2021/07/15 22:26:34;;;;;;;8.70;7.67;;;21.20;87.30;;;;;;10523417;28;20572;-22
2021/07/15 22:31:56;;;;;;;10.43;7.70;;;21.20;87.30;;;;;;10533380;28;20227;-23
2021/07/15 22:37:20;;;;;;;8.47;7.57;;;21.20;87.30;;;;;;10526216;28;20197;-22
2021/07/15 22:42:43;;;;;;;10.00;7.47;;;21.20;87.40;;;;;;10477125;28;20550;-23
2021/07/15 22:48:06;;;;;;;8.77;7.30;;;21.20;87.40;;;;;;10453178;28;20216;-23
2021/07/15 22:53:29;;;;;;;9.10;7.17;;;21.10;87.40;;;;;;10451670;28;20200;-24
2021/07/15 22:58:52;;;;;;;11.20;7.40;;;21.20;87.30;;;;;;10451076;28;20221;-23
2021/07/15 23:04:14;;;;;;;12.77;7.30;;;21.20;87.40;;;;;;10451196;28;20201;-23
2021/07/15 23:09:37;;;;;;;12.90;7.90;;;21.20;87.40;;;;;;10451898;28;20221;-23
2021/07/15 23:14:59;;;;;;;10.67;7.40;;;21.20;87.40;;;;;;10450798;28;20208;-24
2021/07/15 23:20:24;;;;;;;11.37;7.37;;;21.20;87.40;;;;;;10460542;28;20208;-22
2021/07/15 23:25:47;;;;;;;11.87;7.00;;;21.20;87.30;;;;;;10534009;28;20219;-24
2021/07/15 23:31:09;;;;;;;9.30;6.77;;;21.20;87.50;;;;;;10533770;28;20620;-23
2021/07/15 23:36:31;;;;;;;11.43;6.70;;;21.10;87.30;;;;;;10472830;28;20580;-24
2021/07/15 23:41:55;;;;;;;9.10;6.67;;;21.20;88.00;;;;;;10503485;28;20694;-22
2021/07/15 23:47:17;;;;;;;9.40;7.10;;;21.20;87.40;;;;;;10535838;28;20199;-22
2021/07/15 23:52:39;;;;;;;12.30;6.80;;;21.20;87.40;;;;;;10540285;28;20379;-22
2021/07/15 23:58:03;;;;;;;13.37;7.13;;;21.20;87.00;;;;;;10519934;28;20220;-23
